Islip, New York
Current Conditions -  °F | °C
As of 10:56 AM on Friday 28 Nov 2014 (Local Time) from KISP Reporting Station
Scattered Clouds Scattered Clouds  
Wind Chill: 29°   Ceiling: Unl
Heat Index: 38°   Visibility: 10mi
Dew Point: 21°   Wind: 17mph
Humidity: 51%   Direction: 320°NW
Pressure: 30.12"   Gusts: 29mph
Location:  40.73°N, 73.21°W
Report Text: KISP 281556Z 32015G25KT 10SM SCT032 03/M06 A3012 RMK AO2 SLP200 T00331061
Loading
Personal Weather Stations






























Interactive Weather Map New forecast layout! Learn more

10-Day Weather Forecast

Advertisements
Track Severe Weather on mobile